Time;durP1;ratioP1;P1;durP2;ratioP2;P2;SDS_P1;SDS_P2;PMS_P1;PMS_P2;Temp;Humidity;BMP_temperature;BMP_pressure;BME280_temperature;BME280_humidity;BME280_pressure;Samples;Min_cycle;Max_cycle;Signal;HPM_P1;HPM_P2
2023/03/20 00:01:15;;;;;;;71.40;49.00;;;;;;;5.72;86.61;98928.69;109633;1250;64272;-75
2023/03/20 00:03:43;;;;;;;71.20;47.30;;;;;;;5.70;86.42;98929.30;109644;1250;59936;-75
2023/03/20 00:06:17;;;;;;;70.60;48.90;;;;;;;5.67;86.88;98925.04;109599;1250;60012;-75
2023/03/20 00:08:45;;;;;;;73.30;49.00;;;;;;;5.63;87.42;98926.67;109638;1250;67491;-75
2023/03/20 00:11:25;;;;;;;72.40;48.50;;;;;;;5.60;87.61;98928.04;109634;1250;60771;-75
2023/03/20 00:13:52;;;;;;;74.70;50.00;;;;;;;5.58;87.75;98926.17;109634;1250;64691;-75
2023/03/20 00:16:21;;;;;;;73.30;50.80;;;;;;;5.58;88.51;98926.73;109620;1250;59746;-75
2023/03/20 00:18:48;;;;;;;75.70;49.70;;;;;;;5.57;89.42;98930.31;109640;1250;59837;-75
2023/03/20 00:21:24;;;;;;;78.10;51.20;;;;;;;5.55;89.49;98931.64;109616;1250;67454;-75
2023/03/20 00:23:51;;;;;;;74.40;49.70;;;;;;;5.53;89.28;98930.50;109599;1250;60837;-75
2023/03/20 00:26:18;;;;;;;71.20;49.50;;;;;;;5.51;88.78;98931.27;109604;1250;64874;-75
2023/03/20 00:28:47;;;;;;;72.40;49.00;;;;;;;5.51;88.46;98931.64;109322;1250;59826;-75
2023/03/20 00:31:29;;;;;;;69.60;48.60;;;;;;;5.49;88.37;98927.84;109602;1251;59756;-75
2023/03/20 00:33:59;;;;;;;66.80;46.40;;;;;;;5.48;88.36;98927.55;109602;1249;67493;-75
2023/03/20 00:36:26;;;;;;;69.00;47.50;;;;;;;5.45;88.88;98926.09;109620;1250;61163;-75
2023/03/20 00:38:53;;;;;;;69.10;47.70;;;;;;;5.42;88.94;98921.30;109615;1250;65297;-75
2023/03/20 00:41:22;;;;;;;67.60;47.70;;;;;;;5.40;88.94;98922.11;109562;1250;59740;-75
2023/03/20 00:43:52;;;;;;;70.00;49.30;;;;;;;5.38;89.10;98923.27;109579;1250;59783;-75
2023/03/20 00:46:19;;;;;;;69.10;47.00;;;;;;;5.36;89.32;98921.08;109588;1250;66412;-75
2023/03/20 00:48:47;;;;;;;67.20;46.10;;;;;;;5.34;89.57;98920.98;109587;1250;60716;-75
2023/03/20 00:51:13;;;;;;;64.80;47.30;;;;;;;5.32;89.66;98922.14;109600;1250;64793;-75
2023/03/20 00:53:40;;;;;;;65.80;47.30;;;;;;;5.31;89.68;98918.33;109608;1250;59801;-75
2023/03/20 00:56:24;;;;;;;69.50;47.50;;;;;;;5.29;89.76;98911.35;109621;1250;59926;-75
2023/03/20 00:58:51;;;;;;;70.20;46.90;;;;;;;5.27;90.03;98912.48;109363;1250;67102;-76
2023/03/20 01:01:17;;;;;;;71.40;49.50;;;;;;;5.25;90.27;98909.92;109602;1250;60143;-75
2023/03/20 01:03:44;;;;;;;70.60;48.20;;;;;;;5.24;90.53;98909.84;109596;1250;65035;-75
2023/03/20 01:06:11;;;;;;;76.10;51.10;;;;;;;5.23;90.87;98912.17;109610;1250;59763;-75
2023/03/20 01:08:38;;;;;;;73.50;52.10;;;;;;;5.21;91.91;98911.89;109650;1250;60097;-75
2023/03/20 01:11:05;;;;;;;76.30;54.10;;;;;;;5.19;92.40;98907.21;109567;1250;67053;-75
2023/03/20 01:13:32;;;;;;;76.70;52.30;;;;;;;5.19;92.75;98905.98;109596;1250;59843;-75
2023/03/20 01:15:58;;;;;;;72.20;51.20;;;;;;;5.19;93.02;98903.02;109599;1250;64746;-75
2023/03/20 01:18:26;;;;;;;71.70;50.20;;;;;;;5.16;93.27;98904.55;109601;1250;59757;-75
2023/03/20 01:20:53;;;;;;;77.00;52.50;;;;;;;5.12;93.66;98904.57;109359;1250;59924;-74
2023/03/20 01:23:21;;;;;;;71.40;51.60;;;;;;;5.09;93.97;98906.11;109580;1250;65294;-74
2023/03/20 01:25:49;;;;;;;71.90;51.20;;;;;;;5.08;94.24;98908.77;109594;1250;60772;-74
2023/03/20 01:28:22;;;;;;;73.30;51.10;;;;;;;5.07;94.38;98905.98;109595;1250;64736;-74
2023/03/20 01:30:49;;;;;;;72.70;50.70;;;;;;;5.08;94.77;98910.21;109606;1250;59744;-74
2023/03/20 01:33:19;;;;;;;72.10;49.60;;;;;;;5.07;95.11;98909.89;109660;1250;59814;-74
2023/03/20 01:35:47;;;;;;;81.20;55.20;;;;;;;5.06;95.63;98913.98;109632;1250;66514;-75
2023/03/20 01:38:21;;;;;;;75.60;52.60;;;;;;;5.03;95.97;98913.93;109669;1250;59828;-74
2023/03/20 01:40:47;;;;;;;76.70;54.20;;;;;;;5.01;96.07;98914.90;109610;1250;64713;-74
2023/03/20 01:43:18;;;;;;;81.10;54.40;;;;;;;5.00;96.60;98913.90;109589;1250;59824;-74
2023/03/20 01:46:07;;;;;;;76.70;54.30;;;;;;;5.00;96.91;98913.56;109645;1250;59801;-74
2023/03/20 01:48:59;;;;;;;78.00;53.90;;;;;;;5.00;97.02;98913.73;108905;1258;67834;-74
2023/03/20 01:51:28;;;;;;;78.60;54.00;;;;;;;5.01;97.28;98914.76;108965;1258;61013;-74
2023/03/20 01:54:01;;;;;;;72.20;52.60;;;;;;;5.01;97.47;98916.52;108920;1258;64117;-74
2023/03/20 01:56:31;;;;;;;75.40;51.30;;;;;;;5.01;97.42;98915.98;108928;1258;59831;-75
2023/03/20 01:59:04;;;;;;;73.10;51.50;;;;;;;5.01;97.95;98917.73;108929;1258;59901;-74
2023/03/20 02:01:34;;;;;;;70.00;51.40;;;;;;;5.01;97.93;98922.85;108603;1258;66584;-74
2023/03/20 02:04:01;;;;;;;80.70;53.60;;;;;;;5.00;98.30;98920.95;108923;1258;59914;-74
2023/03/20 02:06:28;;;;;;;76.40;52.70;;;;;;;4.99;98.65;98919.25;108905;1259;65219;-74
2023/03/20 02:08:55;;;;;;;71.80;51.20;;;;;;;4.99;98.58;98923.13;108900;1259;59928;-74
2023/03/20 02:11:24;;;;;;;73.00;49.70;;;;;;;4.99;98.44;98923.83;108919;1258;59718;-74
2023/03/20 02:13:54;;;;;;;76.20;51.60;;;;;;;4.99;98.58;98924.15;108930;1258;66799;-74
2023/03/20 02:16:21;;;;;;;70.40;50.00;;;;;;;5.00;98.32;98922.20;108913;1258;59900;-75
2023/03/20 02:18:51;;;;;;;71.40;49.70;;;;;;;5.01;98.89;98925.87;108899;1258;63710;-74
2023/03/20 02:21:26;;;;;;;69.40;51.10;;;;;;;5.00;99.07;98922.52;108744;1258;60331;-74
2023/03/20 02:24:20;;;;;;;66.00;47.90;;;;;;;5.00;99.28;98921.66;108887;1258;59831;-74
2023/03/20 02:27:05;;;;;;;66.30;46.60;;;;;;;5.00;99.63;98917.96;109534;1250;68119;-74
2023/03/20 02:30:00;;;;;;;71.20;50.20;;;;;;;4.99;99.92;98918.01;109357;1250;60854;-74
2023/03/20 02:32:42;;;;;;;66.60;48.70;;;;;;;4.94;100.00;98917.33;109587;1250;65041;-74
2023/03/20 02:35:36;;;;;;;72.90;47.80;;;;;;;4.89;100.00;98914.23;109649;1250;60178;-74
2023/03/20 02:38:19;;;;;;;72.50;51.20;;;;;;;4.86;100.00;98914.39;109016;1257;60033;-74
2023/03/20 02:41:04;;;;;;;67.50;49.30;;;;;;;4.85;100.00;98912.64;109031;1257;67663;-74
2023/03/20 02:43:42;;;;;;;77.30;52.50;;;;;;;4.86;100.00;98913.52;109028;1258;59914;-74
2023/03/20 02:46:18;;;;;;;79.30;55.30;;;;;;;4.86;100.00;98909.78;109028;1257;64727;-74
2023/03/20 02:49:16;;;;;;;83.60;61.40;;;;;;;4.87;100.00;98906.77;109021;1257;59865;-74
2023/03/20 02:51:55;;;;;;;92.70;68.10;;;;;;;4.88;100.00;98905.13;108698;1263;59937;-75
2023/03/20 02:54:33;;;;;;;93.50;64.90;;;;;;;4.90;100.00;98903.98;108731;1263;67490;-74
2023/03/20 02:57:10;;;;;;;89.40;64.70;;;;;;;4.92;100.00;98904.94;108705;1263;61119;-75
2023/03/20 02:59:53;;;;;;;94.70;66.50;;;;;;;4.93;100.00;98906.30;108707;1263;64783;-74
2023/03/20 03:02:30;;;;;;;81.80;60.60;;;;;;;4.93;100.00;98904.35;108702;1263;59742;-74
2023/03/20 03:05:00;;;;;;;88.50;57.80;;;;;;;4.92;100.00;98902.45;108585;1264;59951;-74
2023/03/20 03:07:31;;;;;;;78.60;57.80;;;;;;;4.91;100.00;98908.89;108720;1263;67922;-74
2023/03/20 03:10:10;;;;;;;79.40;57.30;;;;;;;4.87;100.00;98907.28;108741;1263;60177;-74
2023/03/20 03:12:41;;;;;;;83.70;59.10;;;;;;;4.85;100.00;98903.33;108699;1263;64088;-74
2023/03/20 03:15:19;;;;;;;80.80;57.10;;;;;;;4.86;100.00;98904.17;108835;1257;59874;-74
2023/03/20 03:17:48;;;;;;;80.60;55.60;;;;;;;4.85;100.00;98904.55;108986;1257;59924;-74
2023/03/20 03:20:26;;;;;;;78.20;56.10;;;;;;;4.83;100.00;98903.95;109019;1257;66784;-75
2023/03/20 03:22:53;;;;;;;80.20;55.90;;;;;;;4.80;100.00;98901.98;109017;1257;59901;-75
2023/03/20 03:25:25;;;;;;;85.30;56.50;;;;;;;4.77;100.00;98903.53;109024;1257;63693;-75
2023/03/20 03:28:09;;;;;;;80.20;55.90;;;;;;;4.72;100.00;98903.36;109108;1250;59744;-75
2023/03/20 03:30:38;;;;;;;77.20;56.90;;;;;;;4.68;100.00;98903.54;109618;1250;59846;-75
2023/03/20 03:33:18;;;;;;;90.30;63.40;;;;;;;4.64;100.00;98903.92;109524;1250;66526;-75
2023/03/20 03:35:45;;;;;;;88.10;62.20;;;;;;;4.61;100.00;98904.75;109598;1250;59959;-75
2023/03/20 03:38:12;;;;;;;90.30;63.70;;;;;;;4.61;100.00;98907.20;109575;1250;64833;-75
2023/03/20 03:40:51;;;;;;;84.10;62.00;;;;;;;4.62;100.00;98908.02;109573;1250;59856;-75
2023/03/20 03:43:26;;;;;;;88.90;61.10;;;;;;;4.61;100.00;98910.89;108879;1250;1002900;-74
2023/03/20 03:46:01;;;;;;;88.30;60.50;;;;;;;4.57;100.00;98910.02;109654;1250;66663;-75
2023/03/20 03:48:35;;;;;;;82.40;58.70;;;;;;;4.54;100.00;98910.83;109611;1250;59785;-75
2023/03/20 03:51:10;;;;;;;79.70;58.30;;;;;;;4.53;100.00;98910.20;109651;1250;64831;-75
2023/03/20 03:53:47;;;;;;;81.20;59.20;;;;;;;4.53;100.00;98910.04;109393;1250;59776;-75
2023/03/20 03:56:24;;;;;;;79.50;58.20;;;;;;;4.52;100.00;98908.11;109642;1250;59770;-76
2023/03/20 03:58:59;;;;;;;89.80;57.50;;;;;;;4.51;100.00;98911.35;109603;1250;67832;-75
2023/03/20 04:01:28;;;;;;;86.90;58.40;;;;;;;4.46;100.00;98914.55;109671;1250;60767;-75
2023/03/20 04:03:59;;;;;;;81.60;56.80;;;;;;;4.43;100.00;98917.88;109612;1250;64751;-75
2023/03/20 04:06:26;;;;;;;82.80;57.90;;;;;;;4.41;100.00;98920.05;109606;1250;59876;-74
2023/03/20 04:08:53;;;;;;;86.20;62.00;;;;;;;4.40;100.00;98918.67;109627;1250;59867;-75
2023/03/20 04:11:27;;;;;;;87.10;57.80;;;;;;;4.39;100.00;98918.89;109614;1250;66460;-74
2023/03/20 04:13:54;;;;;;;85.40;58.10;;;;;;;4.38;100.00;98921.58;109610;1250;60715;-75
2023/03/20 04:16:23;;;;;;;79.50;55.00;;;;;;;4.36;100.00;98919.73;109612;1250;65233;-74
2023/03/20 04:18:50;;;;;;;82.90;56.70;;;;;;;4.33;100.00;98917.02;109646;1250;59756;-75
2023/03/20 04:21:17;;;;;;;84.00;58.70;;;;;;;4.31;100.00;98915.89;109649;1250;59965;-75
2023/03/20 04:23:44;;;;;;;78.30;54.10;;;;;;;4.29;100.00;98912.45;109672;1250;67851;-75
2023/03/20 04:26:11;;;;;;;82.70;56.40;;;;;;;4.27;100.00;98917.48;109646;1250;61061;-74
2023/03/20 04:28:38;;;;;;;78.40;55.90;;;;;;;4.24;100.00;98920.60;109413;1250;65135;-75
2023/03/20 04:31:05;;;;;;;82.80;55.20;;;;;;;4.20;100.00;98919.15;109602;1250;59834;-76
2023/03/20 04:33:32;;;;;;;84.30;59.70;;;;;;;4.16;100.00;98916.70;109638;1250;60354;-75
2023/03/20 04:35:58;;;;;;;84.50;59.30;;;;;;;4.12;100.00;98919.14;109599;1250;66429;-75
2023/03/20 04:38:25;;;;;;;86.40;57.90;;;;;;;4.10;100.00;98919.25;109667;1250;61019;-75
2023/03/20 04:40:52;;;;;;;86.90;55.60;;;;;;;4.08;100.00;98919.67;109661;1250;64846;-75
2023/03/20 04:43:19;;;;;;;83.60;55.70;;;;;;;4.06;100.00;98920.81;108077;1250;1002957;-75
2023/03/20 04:45:46;;;;;;;78.40;54.80;;;;;;;4.03;100.00;98922.53;109623;1250;60375;-76
2023/03/20 04:48:13;;;;;;;80.90;55.20;;;;;;;4.00;100.00;98926.34;109367;1250;65259;-75
2023/03/20 04:50:40;;;;;;;85.70;56.80;;;;;;;3.94;100.00;98923.24;109652;1250;60769;-75
2023/03/20 04:53:06;;;;;;;87.10;58.80;;;;;;;3.90;100.00;98923.08;109610;1250;65000;-75
2023/03/20 04:55:33;;;;;;;80.70;57.80;;;;;;;3.88;100.00;98922.98;109297;1255;60069;-74
2023/03/20 04:57:59;;;;;;;83.80;57.70;;;;;;;3.86;100.00;98930.08;109591;1250;59810;-75
2023/03/20 05:00:26;;;;;;;82.40;60.10;;;;;;;3.84;100.00;98931.04;109571;1250;67567;-75
2023/03/20 05:02:53;;;;;;;87.30;59.50;;;;;;;3.83;100.00;98932.11;109628;1250;60262;-75
2023/03/20 05:05:20;;;;;;;85.00;58.70;;;;;;;3.82;100.00;98935.50;109556;1250;62705;-75
2023/03/20 05:07:47;;;;;;;88.60;60.90;;;;;;;3.81;100.00;98937.34;109340;1250;60216;-75
2023/03/20 05:10:14;;;;;;;85.40;57.50;;;;;;;3.80;100.00;98936.65;109648;1250;59658;-75
2023/03/20 05:12:40;;;;;;;90.90;61.60;;;;;;;3.81;100.00;98935.55;109640;1250;67464;-75
2023/03/20 05:15:08;;;;;;;83.90;58.90;;;;;;;3.83;100.00;98936.72;109584;1250;60708;-75
2023/03/20 05:17:34;;;;;;;88.80;60.80;;;;;;;3.84;100.00;98938.80;109648;1250;65127;-75
2023/03/20 05:20:01;;;;;;;86.60;60.60;;;;;;;3.85;100.00;98942.27;109618;1250;59808;-75
2023/03/20 05:22:27;;;;;;;82.50;57.90;;;;;;;3.86;100.00;98941.14;109645;1250;59787;-75
2023/03/20 05:24:54;;;;;;;88.40;60.50;;;;;;;3.90;100.00;98938.00;109608;1250;66996;-75
2023/03/20 05:27:21;;;;;;;84.20;58.60;;;;;;;3.93;100.00;98940.85;109665;1250;60015;-75
2023/03/20 05:29:48;;;;;;;84.20;59.20;;;;;;;3.94;100.00;98939.04;109566;1250;64132;-75
2023/03/20 05:32:14;;;;;;;83.30;57.70;;;;;;;3.99;100.00;98940.29;109579;1250;59770;-75
2023/03/20 05:34:41;;;;;;;84.40;61.80;;;;;;;4.03;100.00;98939.23;109585;1250;59843;-75
2023/03/20 05:37:07;;;;;;;83.80;59.80;;;;;;;4.07;100.00;98941.33;109622;1250;67499;-75
2023/03/20 05:39:34;;;;;;;81.00;58.10;;;;;;;4.13;100.00;98943.91;109609;1250;59886;-75
2023/03/20 05:42:01;;;;;;;86.10;63.00;;;;;;;4.18;100.00;98945.44;109569;1250;65462;-75
2023/03/20 05:44:27;;;;;;;89.10;64.90;;;;;;;4.27;100.00;98945.09;109267;1250;59898;-75
2023/03/20 05:46:54;;;;;;;79.70;58.20;;;;;;;4.38;100.00;98945.65;109615;1250;59841;-74
2023/03/20 05:49:21;;;;;;;83.70;61.90;;;;;;;4.53;100.00;98950.13;109626;1250;67596;-75
2023/03/20 05:51:47;;;;;;;87.70;66.20;;;;;;;4.67;100.00;98950.39;109663;1250;60148;-75
2023/03/20 05:54:15;;;;;;;82.60;58.40;;;;;;;4.83;100.00;98950.05;109626;1250;64701;-75
2023/03/20 05:56:41;;;;;;;84.20;59.70;;;;;;;4.99;100.00;98946.71;109604;1250;59729;-75
2023/03/20 05:59:08;;;;;;;78.60;58.00;;;;;;;5.15;100.00;98945.27;109606;1250;59920;-75
2023/03/20 06:01:35;;;;;;;80.40;59.60;;;;;;;5.35;100.00;98942.79;109636;1250;67853;-75
2023/03/20 06:04:02;;;;;;;89.30;62.10;;;;;;;5.58;100.00;98949.11;109496;1250;60744;-75
2023/03/20 06:06:28;;;;;;;77.80;61.70;;;;;;;5.83;100.00;98946.16;109654;1250;64433;-75
2023/03/20 06:08:55;;;;;;;84.00;65.10;;;;;;;6.08;100.00;98948.14;109551;1250;59865;-75
2023/03/20 06:11:22;;;;;;;77.80;65.90;;;;;;;6.31;100.00;98948.56;109635;1250;59961;-75
2023/03/20 06:13:50;;;;;;;88.10;66.20;;;;;;;6.51;100.00;98949.67;109619;1250;68148;-75
2023/03/20 06:16:16;;;;;;;85.60;65.40;;;;;;;6.67;100.00;98955.52;109639;1250;60994;-74
2023/03/20 06:18:43;;;;;;;79.30;60.80;;;;;;;6.83;100.00;98960.56;109536;1250;64719;-75
2023/03/20 06:21:11;;;;;;;68.70;53.10;;;;;;;6.95;100.00;98963.98;109569;1250;59797;-75
2023/03/20 06:23:38;;;;;;;73.10;52.70;;;;;;;7.06;100.00;98962.02;109591;1250;59812;-75
2023/03/20 06:26:05;;;;;;;61.20;46.40;;;;;;;7.15;100.00;98963.32;109678;1250;66898;-75
2023/03/20 06:28:32;;;;;;;59.20;44.20;;;;;;;7.22;100.00;98963.97;109284;1250;59911;-75
2023/03/20 06:30:58;;;;;;;61.90;43.50;;;;;;;7.31;100.00;98963.84;109622;1250;64105;-75
2023/03/20 06:33:25;;;;;;;55.90;40.20;;;;;;;7.39;100.00;98969.92;109549;1250;59784;-75
2023/03/20 06:35:51;;;;;;;51.80;37.80;;;;;;;7.46;100.00;98969.90;109623;1250;59820;-75
2023/03/20 06:38:18;;;;;;;46.00;34.50;;;;;;;7.52;100.00;98971.38;109286;1250;67491;-74
2023/03/20 06:40:45;;;;;;;40.80;29.90;;;;;;;7.57;100.00;98974.96;109654;1250;61176;-75
2023/03/20 06:43:11;;;;;;;35.80;25.80;;;;;;;7.64;99.33;98974.80;109637;1250;64210;-75
2023/03/20 06:45:39;;;;;;;34.10;24.90;;;;;;;7.73;98.50;98971.83;109296;1251;59766;-75
2023/03/20 06:48:07;;;;;;;36.30;24.10;;;;;;;7.83;97.07;98969.27;109641;1250;60017;-75
2023/03/20 06:50:34;;;;;;;36.00;25.30;;;;;;;7.94;95.89;98965.67;109649;1250;66961;-75
2023/03/20 06:53:01;;;;;;;41.10;26.70;;;;;;;8.05;94.91;98966.11;109685;1250;61163;-75
2023/03/20 06:55:28;;;;;;;36.20;24.00;;;;;;;8.16;93.51;98969.53;109605;1250;63929;-75
2023/03/20 06:57:54;;;;;;;30.00;23.00;;;;;;;8.26;92.62;98970.01;109571;1250;59816;-75
2023/03/20 07:00:21;;;;;;;35.80;24.80;;;;;;;8.37;92.34;98975.24;109622;1250;59655;-75
2023/03/20 07:02:48;;;;;;;32.80;23.20;;;;;;;8.47;91.45;98975.55;109667;1250;67735;-74
2023/03/20 07:05:16;;;;;;;32.60;23.00;;;;;;;8.54;90.54;98982.20;109645;1250;60167;-75
2023/03/20 07:07:43;;;;;;;26.00;19.10;;;;;;;8.61;89.71;98985.05;109669;1250;64717;-75
2023/03/20 07:10:11;;;;;;;24.70;17.00;;;;;;;8.64;88.18;98989.27;109601;1250;59889;-75
2023/03/20 07:12:37;;;;;;;24.60;17.70;;;;;;;8.66;87.17;98992.55;109648;1250;59830;-75
2023/03/20 07:15:05;;;;;;;23.90;16.90;;;;;;;8.70;86.95;98993.36;109664;1251;67758;-75
2023/03/20 07:17:32;;;;;;;24.90;17.90;;;;;;;8.75;86.14;98996.71;109654;1250;60963;-75
2023/03/20 07:19:58;;;;;;;21.90;17.80;;;;;;;8.84;85.54;98996.79;109636;1250;65570;-75
2023/03/20 07:22:27;;;;;;;22.60;17.30;;;;;;;8.95;85.12;98996.42;109615;1250;59883;-75
2023/03/20 07:24:53;;;;;;;24.80;17.60;;;;;;;9.10;84.08;98996.80;109605;1250;59884;-75
2023/03/20 07:27:20;;;;;;;23.60;18.50;;;;;;;9.27;83.76;98994.52;109516;1250;68160;-75
2023/03/20 07:29:46;;;;;;;22.70;17.90;;;;;;;9.49;83.62;98994.38;109668;1250;59857;-75
2023/03/20 07:32:13;;;;;;;23.40;17.10;;;;;;;9.72;82.63;98991.54;109601;1250;64724;-75
2023/03/20 07:34:40;;;;;;;22.60;15.60;;;;;;;9.93;81.59;98990.73;109576;1250;60045;-75
2023/03/20 07:37:06;;;;;;;23.60;17.00;;;;;;;10.12;80.50;98989.81;109627;1250;59896;-75
2023/03/20 07:39:33;;;;;;;23.20;17.10;;;;;;;10.32;80.30;98989.83;109619;1250;66479;-75
2023/03/20 07:42:00;;;;;;;20.70;17.00;;;;;;;10.50;79.81;98989.17;109594;1250;60738;-75
2023/03/20 07:44:27;;;;;;;20.60;15.20;;;;;;;10.62;78.58;98990.11;109662;1250;65048;-75
2023/03/20 07:46:53;;;;;;;19.00;15.50;;;;;;;10.70;76.82;98989.59;109642;1250;59989;-75
2023/03/20 07:49:20;;;;;;;23.70;17.00;;;;;;;10.80;76.72;98989.30;109604;1250;59684;-75
2023/03/20 07:51:48;;;;;;;18.40;15.10;;;;;;;10.87;75.35;98987.56;109593;1250;67569;-75
2023/03/20 07:54:16;;;;;;;20.30;16.10;;;;;;;10.90;74.68;98992.65;109606;1250;60763;-74
2023/03/20 07:56:42;;;;;;;19.50;16.10;;;;;;;10.95;74.92;98991.79;109643;1250;65298;-74
2023/03/20 07:59:09;;;;;;;19.60;15.20;;;;;;;11.05;74.84;98994.66;109608;1251;59867;-74
2023/03/20 08:01:36;;;;;;;20.20;15.90;;;;;;;11.16;74.78;98994.05;109632;1250;59646;-74
2023/03/20 08:04:02;;;;;;;20.30;17.10;;;;;;;11.32;75.12;98995.14;109604;1250;67458;-74
2023/03/20 08:06:29;;;;;;;24.40;16.30;;;;;;;11.44;74.41;98999.05;109634;1250;61166;-74
2023/03/20 08:08:56;;;;;;;23.20;17.40;;;;;;;11.53;73.96;99001.79;109340;1250;64788;-74
2023/03/20 08:11:22;;;;;;;26.50;17.40;;;;;;;11.57;73.72;99000.83;109604;1250;59762;-74
2023/03/20 08:13:49;;;;;;;23.20;19.10;;;;;;;11.60;73.73;98999.33;109331;1250;59826;-74
2023/03/20 08:16:16;;;;;;;21.30;17.80;;;;;;;11.69;73.75;98999.23;109664;1250;68012;-75
2023/03/20 08:18:43;;;;;;;23.00;18.20;;;;;;;11.73;72.93;98996.09;109632;1250;60795;-76
2023/03/20 08:21:09;;;;;;;21.40;17.30;;;;;;;11.72;72.73;98997.64;109646;1250;64755;-75
2023/03/20 08:23:36;;;;;;;21.80;17.60;;;;;;;11.71;72.47;98996.23;109592;1250;59926;-75
2023/03/20 08:26:03;;;;;;;24.40;18.90;;;;;;;11.77;72.78;98997.59;109644;1250;59832;-75
2023/03/20 08:28:29;;;;;;;22.30;17.60;;;;;;;11.88;72.58;98999.35;109634;1250;66471;-74
2023/03/20 08:30:56;;;;;;;21.70;17.20;;;;;;;12.00;71.55;98997.77;109657;1250;61054;-75
2023/03/20 08:33:23;;;;;;;20.80;17.60;;;;;;;12.17;71.07;98997.39;109704;1250;64986;-75
2023/03/20 08:35:57;;;;;;;21.10;17.20;;;;;;;12.35;70.23;98996.80;109584;1250;60218;-75
2023/03/20 08:38:24;;;;;;;21.50;16.50;;;;;;;12.45;69.58;98998.94;109651;1250;59682;-75
2023/03/20 08:40:51;;;;;;;22.60;17.80;;;;;;;12.47;69.23;99001.73;109614;1250;67918;-75
2023/03/20 08:43:18;;;;;;;21.70;17.80;;;;;;;12.54;69.58;98995.36;109567;1251;60855;-75
2023/03/20 08:45:45;;;;;;;21.10;18.10;;;;;;;12.65;69.47;98996.66;109489;1251;64749;-75
2023/03/20 08:48:11;;;;;;;20.60;17.80;;;;;;;12.77;69.26;98993.09;109474;1253;60062;-75
2023/03/20 08:50:38;;;;;;;25.10;17.80;;;;;;;12.84;68.81;98992.36;109549;1251;59875;-75
2023/03/20 08:53:05;;;;;;;22.70;16.70;;;;;;;12.95;68.90;98995.66;109385;1251;66878;-75
2023/03/20 08:55:32;;;;;;;21.90;18.70;;;;;;;13.07;69.15;98996.16;109540;1251;60677;-75
2023/03/20 08:57:59;;;;;;;25.60;19.70;;;;;;;13.22;69.66;98994.28;109456;1251;65384;-74
2023/03/20 09:00:26;;;;;;;22.90;19.50;;;;;;;13.36;69.40;98992.48;109494;1251;59779;-74
2023/03/20 09:02:53;;;;;;;23.30;19.90;;;;;;;13.32;69.13;98991.05;109548;1251;60572;-74
2023/03/20 09:05:20;;;;;;;25.30;20.40;;;;;;;13.24;69.46;98993.08;109577;1251;66876;-76
2023/03/20 09:07:46;;;;;;;23.70;19.80;;;;;;;13.20;69.85;98990.34;109503;1251;60114;-75
2023/03/20 09:10:13;;;;;;;22.70;19.50;;;;;;;13.16;69.48;98991.16;109489;1251;65435;-75
2023/03/20 09:12:40;;;;;;;24.70;19.30;;;;;;;13.03;69.22;98994.15;109541;1251;59745;-74
2023/03/20 09:15:07;;;;;;;26.10;20.70;;;;;;;12.95;70.23;98992.63;109589;1251;60126;-74
2023/03/20 09:17:33;;;;;;;26.50;19.90;;;;;;;12.95;70.88;98996.55;109470;1251;67858;-75
2023/03/20 09:20:00;;;;;;;25.20;19.50;;;;;;;13.00;71.59;98996.72;109517;1253;60075;-75
2023/03/20 09:22:27;;;;;;;22.30;18.50;;;;;;;13.09;71.94;99001.02;109542;1251;65025;-75
2023/03/20 09:24:53;;;;;;;22.30;19.50;;;;;;;13.14;72.18;99002.88;109456;1251;60179;-75
2023/03/20 09:27:20;;;;;;;27.50;20.50;;;;;;;13.10;72.60;99001.47;109499;1251;59799;-75
2023/03/20 09:29:47;;;;;;;26.70;20.70;;;;;;;13.10;73.60;98999.84;109508;1251;66680;-75
2023/03/20 09:32:14;;;;;;;26.70;20.40;;;;;;;13.26;74.07;98997.73;109533;1251;60792;-76
2023/03/20 09:34:41;;;;;;;26.40;20.80;;;;;;;13.56;74.56;98992.31;109477;1251;64782;-76
2023/03/20 09:37:08;;;;;;;22.90;19.70;;;;;;;13.81;74.60;98990.31;109528;1251;59810;-76
2023/03/20 09:39:35;;;;;;;29.40;20.40;;;;;;;13.92;74.66;98989.48;109557;1251;59824;-76
2023/03/20 09:42:46;;;;;;;24.90;20.80;;;;;;;13.95;74.97;98991.88;109579;1250;66779;-75
2023/03/20 09:45:26;;;;;;;27.20;20.20;;;;;;;13.97;75.41;98992.10;109606;1250;59826;-75
2023/03/20 09:48:01;;;;;;;24.90;19.10;;;;;;;13.95;76.15;98985.50;109630;1250;64094;-75
2023/03/20 09:50:54;;;;;;;29.60;21.70;;;;;;;13.92;76.61;98985.95;109597;1250;59773;-76
2023/03/20 09:53:28;;;;;;;24.00;20.90;;;;;;;13.85;77.18;98990.41;109672;1250;59795;-75
2023/03/20 09:55:56;;;;;;;26.00;21.40;;;;;;;13.69;78.03;98986.33;109338;1250;67758;-76
2023/03/20 09:58:29;;;;;;;28.00;21.70;;;;;;;13.52;78.67;98991.05;109662;1250;61139;-76
2023/03/20 10:00:58;;;;;;;25.10;20.40;;;;;;;13.41;79.32;98993.38;109602;1250;64046;-75
2023/03/20 10:03:35;;;;;;;26.50;20.30;;;;;;;13.36;80.16;98994.99;109584;1250;60164;-74
2023/03/20 10:06:12;;;;;;;27.80;20.30;;;;;;;13.31;80.72;98996.84;109528;1250;59839;-75
2023/03/20 10:08:39;;;;;;;26.50;21.60;;;;;;;13.24;81.32;98996.27;109650;1254;67310;-74
2023/03/20 10:11:21;;;;;;;26.20;21.50;;;;;;;13.17;81.87;98996.64;109605;1250;61050;-75
2023/03/20 10:14:02;;;;;;;28.40;21.30;;;;;;;13.14;82.30;98993.13;109641;1250;65224;-75
2023/03/20 10:16:32;;;;;;;25.90;21.30;;;;;;;13.13;82.77;98991.04;109581;1250;59837;-76
2023/03/20 10:19:20;;;;;;;27.90;21.40;;;;;;;13.17;82.70;98992.66;109632;1250;59845;-75
2023/03/20 10:21:52;;;;;;;32.20;22.80;;;;;;;13.23;82.82;98989.40;109636;1250;67804;-75
2023/03/20 10:24:37;;;;;;;27.60;22.20;;;;;;;13.39;82.92;98989.61;109649;1250;59872;-75
2023/03/20 10:27:19;;;;;;;26.70;21.90;;;;;;;13.48;82.33;98987.30;109643;1254;64780;-75
2023/03/20 10:30:04;;;;;;;28.60;22.40;;;;;;;13.55;82.30;98983.34;109571;1250;59761;-75
2023/03/20 10:32:50;;;;;;;26.30;22.80;;;;;;;13.71;82.60;98978.14;109602;1250;59798;-75
2023/03/20 10:35:17;;;;;;;28.60;23.10;;;;;;;13.97;82.35;98979.06;109649;1250;66888;-75
2023/03/20 10:38:00;;;;;;;27.90;23.20;;;;;;;14.14;81.98;98976.79;109624;1254;60977;-74
2023/03/20 10:40:36;;;;;;;30.20;23.90;;;;;;;14.21;81.02;98976.75;109634;1250;65250;-75
2023/03/20 10:43:28;;;;;;;30.10;25.00;;;;;;;14.13;80.75;98976.52;109599;1251;59873;-75
2023/03/20 10:46:08;;;;;;;29.20;23.70;;;;;;;14.15;81.69;98977.98;109629;1250;59657;-75
2023/03/20 10:48:41;;;;;;;31.20;24.10;;;;;;;14.31;82.20;98976.09;109612;1250;67746;-75
2023/03/20 10:51:15;;;;;;;29.80;23.90;;;;;;;14.43;81.84;98974.20;108106;1250;1692209;-74
2023/03/20 10:53:48;;;;;;;25.10;22.30;;;;;;;14.64;81.40;98969.05;109605;1250;64753;-75
2023/03/20 10:56:27;;;;;;;28.40;22.90;;;;;;;14.94;81.23;98962.66;109621;1254;60196;-75
2023/03/20 10:59:16;;;;;;;29.30;23.00;;;;;;;15.17;79.66;98961.39;109668;1250;60001;-75
2023/03/20 11:01:42;;;;;;;27.30;21.20;;;;;;;15.21;78.88;98959.92;109593;1250;67784;-75
2023/03/20 11:04:09;;;;;;;28.10;22.20;;;;;;;15.28;78.48;98959.14;109604;1250;61125;-75
2023/03/20 11:07:01;;;;;;;24.40;20.50;;;;;;;15.40;78.27;98959.59;109587;1250;64757;-74
2023/03/20 11:09:31;;;;;;;25.30;18.40;;;;;;;15.49;77.98;98956.46;109584;1250;59832;-74
2023/03/20 11:12:01;;;;;;;23.60;18.60;;;;;;;15.60;78.19;98951.00;109651;1250;59685;-75
2023/03/20 11:14:36;;;;;;;20.90;18.70;;;;;;;15.74;77.68;98952.06;109621;1251;67505;-75
2023/03/20 11:17:05;;;;;;;22.20;18.80;;;;;;;15.63;77.26;98950.02;109382;1252;61701;-75
2023/03/20 11:19:34;;;;;;;24.40;19.40;;;;;;;15.53;77.13;98952.11;109554;1250;64808;-75
2023/03/20 11:22:17;;;;;;;21.90;18.40;;;;;;;15.42;76.09;98954.17;109269;1255;59895;-75
2023/03/20 11:24:47;;;;;;;21.70;19.30;;;;;;;15.34;76.03;98952.41;109522;1250;59641;-74
2023/03/20 11:27:18;;;;;;;21.10;18.90;;;;;;;15.38;75.59;98944.00;109662;1250;67883;-75